Impacts TAF Board INFO
FOR SITUATIONAL AWARENESS. NOT TO BE USED FOR FLIGHT PLANNING PURPOSES.
IDs:

KPIT - Pittsburgh Intl, PA, US

Issued at 0255 UTC 23 May 2018
Updated at 0315 UTC 23 May 2018
Potential Impact None Slight Moderate High
Time0251Z 23/04Z 23/05Z 23/06Z 23/07Z 23/08Z 23/09Z 23/10Z 23/11Z 23/12Z 23/13Z 23/14Z 23/15Z 23/16Z>>
Type OBS PRVL PRVL PRVL PRVL PRVL PRVL PRVL PRVL PRVL PRVL PRVL PRVL PRVL
VIS 10 >6 >6 >6 >6 >6 >6 >6 >6 >6 >6 >6 >6 >6
CIG 250 100 100 25 25 25 25 25 -- -- -- -- -- --
Cover OVC BKN BKN BKN BKN BKN BKN BKN SCT SCT SCT SCT SCT SCT
FltCat VFR VFR VFR MVFR MVFR MVFR MVFR MVFR VFR VFR VFR VFR VFR VFR
WX -- -- -- -- -- -- -- -- -- -- -- -- -- --
WDir VRB 240 240 280 280 280 280 280 330 330 330 330 330 330
WSpd 3 5 5 4 4 4 4 4 6 6 6 6 6 6
WGst -- -- -- -- -- -- -- -- -- -- -- -- -- --

Raw TAF
KPIT 230255Z 2303/2406 24005KT P6SM BKN100
  FM230600 28004KT P6SM BKN025
  FM231100 33006KT P6SM SCT010
  FM231600 33006KT P6SM SCT025


Raw METAR
KPIT 230251Z VRB03KT 10SM SCT070 OVC250 18/17 A2997 RMK AO2 SLP152 60001 T01780167 53009
KPIT 230151Z 28005KT 10SM FEW070 SCT110 OVC250 17/16 A2995 RMK AO2 SLP146 T01720161
KPIT 230051Z 24004KT 10SM FEW070 BKN130 BKN220 18/16 A2995 RMK AO2 LTG DSNT SE AND S RAE01 TSE04 SLP144 P0001 T01780161

METAR Board
Radar Display
Forecast Discussion

FOR SITUATIONAL AWARENESS. NOT TO BE USED FOR FLIGHT PLANNING PURPOSES.